sensor_id;sensor_type;location;lat;lon;timestamp;P1;durP1;ratioP1;P2;durP2;ratioP2
64832;SDS011;51290;45.060;38.948;2024-01-10T00:00:06;17.30;;;11.00;;
64832;SDS011;51290;45.060;38.948;2024-01-10T00:02:33;14.98;;;8.73;;
64832;SDS011;51290;45.060;38.948;2024-01-10T00:04:59;15.25;;;9.60;;
64832;SDS011;51290;45.060;38.948;2024-01-10T00:07:25;22.30;;;12.82;;
64832;SDS011;51290;45.060;38.948;2024-01-10T00:09:50;17.95;;;12.00;;
64832;SDS011;51290;45.060;38.948;2024-01-10T00:12:17;22.25;;;9.77;;
64832;SDS011;51290;45.060;38.948;2024-01-10T00:14:43;15.88;;;10.63;;
64832;SDS011;51290;45.060;38.948;2024-01-10T00:17:09;13.77;;;8.57;;
64832;SDS011;51290;45.060;38.948;2024-01-10T00:19:35;15.45;;;9.55;;
64832;SDS011;51290;45.060;38.948;2024-01-10T00:22:01;18.17;;;10.52;;
64832;SDS011;51290;45.060;38.948;2024-01-10T00:24:27;17.02;;;12.43;;
64832;SDS011;51290;45.060;38.948;2024-01-10T00:26:53;21.55;;;12.55;;
64832;SDS011;51290;45.060;38.948;2024-01-10T00:29:19;15.25;;;10.02;;
64832;SDS011;51290;45.060;38.948;2024-01-10T00:31:45;20.55;;;11.27;;
64832;SDS011;51290;45.060;38.948;2024-01-10T00:34:11;19.40;;;12.10;;
64832;SDS011;51290;45.060;38.948;2024-01-10T00:36:36;16.05;;;9.77;;
64832;SDS011;51290;45.060;38.948;2024-01-10T00:39:02;19.27;;;11.68;;
64832;SDS011;51290;45.060;38.948;2024-01-10T00:41:29;19.60;;;11.00;;
64832;SDS011;51290;45.060;38.948;2024-01-10T00:43:54;17.85;;;10.55;;
64832;SDS011;51290;45.060;38.948;2024-01-10T00:46:20;26.02;;;13.80;;
64832;SDS011;51290;45.060;38.948;2024-01-10T00:48:46;18.80;;;11.65;;
64832;SDS011;51290;45.060;38.948;2024-01-10T00:51:12;23.35;;;14.60;;
64832;SDS011;51290;45.060;38.948;2024-01-10T00:53:38;23.02;;;13.40;;
64832;SDS011;51290;45.060;38.948;2024-01-10T00:56:05;26.75;;;12.35;;
64832;SDS011;51290;45.060;38.948;2024-01-10T00:58:31;22.58;;;14.05;;
64832;SDS011;51290;45.060;38.948;2024-01-10T01:00:57;22.60;;;12.80;;
64832;SDS011;51290;45.060;38.948;2024-01-10T01:03:23;19.13;;;12.75;;
64832;SDS011;51290;45.060;38.948;2024-01-10T01:05:49;19.90;;;12.57;;
64832;SDS011;51290;45.060;38.948;2024-01-10T01:08:15;18.60;;;12.07;;
64832;SDS011;51290;45.060;38.948;2024-01-10T01:10:41;23.27;;;13.80;;
64832;SDS011;51290;45.060;38.948;2024-01-10T01:13:06;20.63;;;12.57;;
64832;SDS011;51290;45.060;38.948;2024-01-10T01:15:32;20.63;;;13.80;;
64832;SDS011;51290;45.060;38.948;2024-01-10T01:17:58;24.83;;;15.73;;
64832;SDS011;51290;45.060;38.948;2024-01-10T01:20:24;22.58;;;14.68;;
64832;SDS011;51290;45.060;38.948;2024-01-10T01:22:50;21.40;;;13.10;;
64832;SDS011;51290;45.060;38.948;2024-01-10T01:25:16;18.30;;;13.52;;
64832;SDS011;51290;45.060;38.948;2024-01-10T01:27:42;19.52;;;12.45;;
64832;SDS011;51290;45.060;38.948;2024-01-10T01:30:08;22.45;;;13.73;;
64832;SDS011;51290;45.060;38.948;2024-01-10T01:32:36;23.55;;;15.05;;
64832;SDS011;51290;45.060;38.948;2024-01-10T01:35:03;22.02;;;13.80;;
64832;SDS011;51290;45.060;38.948;2024-01-10T01:37:29;21.95;;;13.55;;
64832;SDS011;51290;45.060;38.948;2024-01-10T01:39:55;20.23;;;13.80;;
64832;SDS011;51290;45.060;38.948;2024-01-10T01:42:21;25.05;;;13.85;;
64832;SDS011;51290;45.060;38.948;2024-01-10T01:44:47;25.95;;;14.52;;
64832;SDS011;51290;45.060;38.948;2024-01-10T01:47:13;23.10;;;14.25;;
64832;SDS011;51290;45.060;38.948;2024-01-10T01:49:39;20.50;;;13.68;;
64832;SDS011;51290;45.060;38.948;2024-01-10T01:52:08;21.92;;;13.27;;
64832;SDS011;51290;45.060;38.948;2024-01-10T01:54:35;20.58;;;13.55;;
64832;SDS011;51290;45.060;38.948;2024-01-10T01:57:01;25.10;;;15.43;;
64832;SDS011;51290;45.060;38.948;2024-01-10T01:59:28;23.67;;;14.65;;
64832;SDS011;51290;45.060;38.948;2024-01-10T02:01:54;21.75;;;13.57;;
64832;SDS011;51290;45.060;38.948;2024-01-10T02:04:21;18.92;;;13.15;;
64832;SDS011;51290;45.060;38.948;2024-01-10T02:06:48;21.75;;;13.80;;
64832;SDS011;51290;45.060;38.948;2024-01-10T02:09:14;22.05;;;13.43;;
64832;SDS011;51290;45.060;38.948;2024-01-10T02:11:40;20.27;;;13.55;;
64832;SDS011;51290;45.060;38.948;2024-01-10T02:14:07;23.92;;;15.73;;
64832;SDS011;51290;45.060;38.948;2024-01-10T02:16:33;19.73;;;12.77;;
64832;SDS011;51290;45.060;38.948;2024-01-10T02:18:59;26.30;;;15.68;;
64832;SDS011;51290;45.060;38.948;2024-01-10T02:21:26;30.98;;;15.57;;
64832;SDS011;51290;45.060;38.948;2024-01-10T02:23:52;23.15;;;15.07;;
64832;SDS011;51290;45.060;38.948;2024-01-10T02:26:18;22.52;;;12.02;;
64832;SDS011;51290;45.060;38.948;2024-01-10T02:28:44;31.67;;;14.57;;
64832;SDS011;51290;45.060;38.948;2024-01-10T02:31:10;22.13;;;11.48;;
64832;SDS011;51290;45.060;38.948;2024-01-10T02:33:36;19.67;;;11.38;;
64832;SDS011;51290;45.060;38.948;2024-01-10T02:36:02;19.35;;;12.05;;
64832;SDS011;51290;45.060;38.948;2024-01-10T02:38:28;18.40;;;12.75;;
64832;SDS011;51290;45.060;38.948;2024-01-10T02:40:54;20.33;;;13.07;;
64832;SDS011;51290;45.060;38.948;2024-01-10T02:43:21;18.77;;;11.65;;
64832;SDS011;51290;45.060;38.948;2024-01-10T02:45:47;20.75;;;13.02;;
64832;SDS011;51290;45.060;38.948;2024-01-10T02:48:13;19.80;;;11.40;;
64832;SDS011;51290;45.060;38.948;2024-01-10T02:50:39;20.25;;;11.75;;
64832;SDS011;51290;45.060;38.948;2024-01-10T02:53:05;20.10;;;11.75;;
64832;SDS011;51290;45.060;38.948;2024-01-10T02:55:31;21.50;;;13.30;;
64832;SDS011;51290;45.060;38.948;2024-01-10T02:57:57;20.48;;;12.38;;
64832;SDS011;51290;45.060;38.948;2024-01-10T03:00:23;20.35;;;12.65;;
64832;SDS011;51290;45.060;38.948;2024-01-10T03:02:49;20.35;;;12.38;;
64832;SDS011;51290;45.060;38.948;2024-01-10T03:05:15;19.67;;;12.20;;
64832;SDS011;51290;45.060;38.948;2024-01-10T03:07:41;21.13;;;12.98;;
64832;SDS011;51290;45.060;38.948;2024-01-10T03:10:07;19.58;;;12.45;;
64832;SDS011;51290;45.060;38.948;2024-01-10T03:12:33;18.02;;;11.05;;
64832;SDS011;51290;45.060;38.948;2024-01-10T03:15:02;16.08;;;10.25;;
64832;SDS011;51290;45.060;38.948;2024-01-10T03:17:29;15.68;;;9.18;;
64832;SDS011;51290;45.060;38.948;2024-01-10T03:19:59;13.55;;;9.00;;
64832;SDS011;51290;45.060;38.948;2024-01-10T03:22:25;15.88;;;9.02;;
64832;SDS011;51290;45.060;38.948;2024-01-10T03:24:51;15.40;;;8.85;;
64832;SDS011;51290;45.060;38.948;2024-01-10T03:27:16;18.67;;;11.30;;
64832;SDS011;51290;45.060;38.948;2024-01-10T03:29:43;15.55;;;10.00;;
64832;SDS011;51290;45.060;38.948;2024-01-10T03:32:08;18.33;;;11.57;;
64832;SDS011;51290;45.060;38.948;2024-01-10T03:34:34;21.23;;;11.38;;
64832;SDS011;51290;45.060;38.948;2024-01-10T03:37:00;16.67;;;10.40;;
64832;SDS011;51290;45.060;38.948;2024-01-10T03:39:26;15.50;;;10.32;;
64832;SDS011;51290;45.060;38.948;2024-01-10T03:41:52;15.23;;;9.80;;
64832;SDS011;51290;45.060;38.948;2024-01-10T03:44:18;14.23;;;9.45;;
64832;SDS011;51290;45.060;38.948;2024-01-10T03:46:44;15.85;;;10.38;;
64832;SDS011;51290;45.060;38.948;2024-01-10T03:49:10;18.92;;;11.13;;
64832;SDS011;51290;45.060;38.948;2024-01-10T03:51:36;16.33;;;10.07;;
64832;SDS011;51290;45.060;38.948;2024-01-10T03:54:02;18.05;;;10.68;;
64832;SDS011;51290;45.060;38.948;2024-01-10T03:56:28;20.63;;;10.63;;
64832;SDS011;51290;45.060;38.948;2024-01-10T03:58:54;16.60;;;10.52;;
64832;SDS011;51290;45.060;38.948;2024-01-10T04:01:23;19.83;;;11.10;;
64832;SDS011;51290;45.060;38.948;2024-01-10T04:03:49;13.57;;;8.50;;
64832;SDS011;51290;45.060;38.948;2024-01-10T04:06:15;18.13;;;12.35;;
64832;SDS011;51290;45.060;38.948;2024-01-10T04:08:41;21.00;;;11.27;;
64832;SDS011;51290;45.060;38.948;2024-01-10T04:11:07;12.65;;;8.30;;
64832;SDS011;51290;45.060;38.948;2024-01-10T04:13:34;19.30;;;10.15;;
64832;SDS011;51290;45.060;38.948;2024-01-10T04:16:00;20.88;;;10.80;;
64832;SDS011;51290;45.060;38.948;2024-01-10T04:18:26;15.68;;;9.85;;
64832;SDS011;51290;45.060;38.948;2024-01-10T04:20:52;14.30;;;10.45;;
64832;SDS011;51290;45.060;38.948;2024-01-10T04:23:18;17.88;;;12.10;;
64832;SDS011;51290;45.060;38.948;2024-01-10T04:25:44;16.92;;;9.85;;
64832;SDS011;51290;45.060;38.948;2024-01-10T04:28:10;18.58;;;10.32;;
64832;SDS011;51290;45.060;38.948;2024-01-10T04:30:36;17.17;;;9.95;;
64832;SDS011;51290;45.060;38.948;2024-01-10T04:33:02;18.08;;;9.95;;
64832;SDS011;51290;45.060;38.948;2024-01-10T04:35:28;20.30;;;11.95;;
64832;SDS011;51290;45.060;38.948;2024-01-10T04:37:54;18.73;;;11.40;;
64832;SDS011;51290;45.060;38.948;2024-01-10T04:40:20;19.67;;;11.05;;
64832;SDS011;51290;45.060;38.948;2024-01-10T04:42:46;17.60;;;11.07;;
64832;SDS011;51290;45.060;38.948;2024-01-10T04:45:12;18.33;;;10.68;;
64832;SDS011;51290;45.060;38.948;2024-01-10T04:47:38;21.52;;;11.20;;
64832;SDS011;51290;45.060;38.948;2024-01-10T04:50:04;18.98;;;11.00;;
64832;SDS011;51290;45.060;38.948;2024-01-10T04:52:30;20.45;;;12.77;;
64832;SDS011;51290;45.060;38.948;2024-01-10T04:54:56;21.00;;;12.38;;
64832;SDS011;51290;45.060;38.948;2024-01-10T04:57:22;23.27;;;12.73;;
64832;SDS011;51290;45.060;38.948;2024-01-10T04:59:48;21.25;;;13.23;;
64832;SDS011;51290;45.060;38.948;2024-01-10T05:02:14;18.27;;;11.48;;
64832;SDS011;51290;45.060;38.948;2024-01-10T05:04:40;23.95;;;16.65;;
64832;SDS011;51290;45.060;38.948;2024-01-10T05:07:06;24.00;;;14.23;;
64832;SDS011;51290;45.060;38.948;2024-01-10T05:09:32;21.50;;;13.15;;
64832;SDS011;51290;45.060;38.948;2024-01-10T05:11:58;25.90;;;16.20;;
64832;SDS011;51290;45.060;38.948;2024-01-10T05:14:24;27.25;;;15.73;;
64832;SDS011;51290;45.060;38.948;2024-01-10T05:16:50;30.38;;;16.42;;
64832;SDS011;51290;45.060;38.948;2024-01-10T05:19:17;30.52;;;16.55;;
64832;SDS011;51290;45.060;38.948;2024-01-10T05:21:43;28.83;;;16.92;;
64832;SDS011;51290;45.060;38.948;2024-01-10T05:24:09;25.75;;;14.95;;
64832;SDS011;51290;45.060;38.948;2024-01-10T05:26:35;29.08;;;16.10;;
64832;SDS011;51290;45.060;38.948;2024-01-10T05:29:01;28.88;;;15.43;;
64832;SDS011;51290;45.060;38.948;2024-01-10T05:31:28;25.90;;;15.55;;
64832;SDS011;51290;45.060;38.948;2024-01-10T05:33:54;19.73;;;12.55;;
64832;SDS011;51290;45.060;38.948;2024-01-10T05:36:23;22.55;;;14.65;;
64832;SDS011;51290;45.060;38.948;2024-01-10T05:38:49;24.73;;;12.88;;
64832;SDS011;51290;45.060;38.948;2024-01-10T05:41:15;20.73;;;13.45;;
64832;SDS011;51290;45.060;38.948;2024-01-10T05:43:41;23.65;;;14.52;;
64832;SDS011;51290;45.060;38.948;2024-01-10T05:46:07;20.05;;;13.00;;
64832;SDS011;51290;45.060;38.948;2024-01-10T05:48:32;22.60;;;14.07;;
64832;SDS011;51290;45.060;38.948;2024-01-10T05:50:58;21.25;;;13.80;;
64832;SDS011;51290;45.060;38.948;2024-01-10T05:53:24;20.75;;;12.88;;
64832;SDS011;51290;45.060;38.948;2024-01-10T05:55:51;23.60;;;14.25;;
64832;SDS011;51290;45.060;38.948;2024-01-10T05:58:17;24.73;;;13.38;;
64832;SDS011;51290;45.060;38.948;2024-01-10T06:00:43;21.92;;;13.93;;
64832;SDS011;51290;45.060;38.948;2024-01-10T06:03:08;21.77;;;14.80;;
64832;SDS011;51290;45.060;38.948;2024-01-10T06:05:34;23.90;;;13.77;;
64832;SDS011;51290;45.060;38.948;2024-01-10T06:08:00;21.70;;;14.40;;
64832;SDS011;51290;45.060;38.948;2024-01-10T06:10:29;23.15;;;15.75;;
64832;SDS011;51290;45.060;38.948;2024-01-10T06:12:55;18.83;;;12.10;;
64832;SDS011;51290;45.060;38.948;2024-01-10T06:15:21;19.48;;;11.77;;
64832;SDS011;51290;45.060;38.948;2024-01-10T06:17:47;20.27;;;12.65;;
64832;SDS011;51290;45.060;38.948;2024-01-10T06:20:15;18.23;;;12.05;;
64832;SDS011;51290;45.060;38.948;2024-01-10T06:22:41;17.95;;;10.98;;
64832;SDS011;51290;45.060;38.948;2024-01-10T06:25:07;21.13;;;13.55;;
64832;SDS011;51290;45.060;38.948;2024-01-10T06:27:34;18.95;;;12.13;;
64832;SDS011;51290;45.060;38.948;2024-01-10T06:30:00;15.15;;;10.57;;
64832;SDS011;51290;45.060;38.948;2024-01-10T06:32:26;20.67;;;12.82;;
64832;SDS011;51290;45.060;38.948;2024-01-10T06:34:52;22.08;;;14.85;;
64832;SDS011;51290;45.060;38.948;2024-01-10T06:37:18;21.92;;;12.07;;
64832;SDS011;51290;45.060;38.948;2024-01-10T06:39:44;19.15;;;11.93;;
64832;SDS011;51290;45.060;38.948;2024-01-10T06:42:10;17.92;;;10.82;;
64832;SDS011;51290;45.060;38.948;2024-01-10T06:44:37;17.85;;;11.15;;
64832;SDS011;51290;45.060;38.948;2024-01-10T06:47:03;19.85;;;11.13;;
64832;SDS011;51290;45.060;38.948;2024-01-10T06:49:29;18.92;;;10.95;;
64832;SDS011;51290;45.060;38.948;2024-01-10T06:51:55;19.70;;;11.35;;
64832;SDS011;51290;45.060;38.948;2024-01-10T06:54:21;16.73;;;10.18;;
64832;SDS011;51290;45.060;38.948;2024-01-10T06:56:47;17.00;;;11.80;;
64832;SDS011;51290;45.060;38.948;2024-01-10T06:59:13;20.83;;;12.57;;
64832;SDS011;51290;45.060;38.948;2024-01-10T07:01:39;17.13;;;11.05;;
64832;SDS011;51290;45.060;38.948;2024-01-10T07:04:05;19.55;;;12.65;;
64832;SDS011;51290;45.060;38.948;2024-01-10T07:06:31;26.05;;;13.77;;
64832;SDS011;51290;45.060;38.948;2024-01-10T07:08:57;20.70;;;12.30;;
64832;SDS011;51290;45.060;38.948;2024-01-10T07:11:23;21.80;;;13.48;;
64832;SDS011;51290;45.060;38.948;2024-01-10T07:13:49;19.17;;;12.13;;
64832;SDS011;51290;45.060;38.948;2024-01-10T07:16:15;20.88;;;11.63;;
64832;SDS011;51290;45.060;38.948;2024-01-10T07:18:42;21.70;;;12.73;;
64832;SDS011;51290;45.060;38.948;2024-01-10T07:21:09;20.95;;;11.27;;
64832;SDS011;51290;45.060;38.948;2024-01-10T07:23:35;21.83;;;13.02;;
64832;SDS011;51290;45.060;38.948;2024-01-10T07:26:05;17.05;;;11.10;;
64832;SDS011;51290;45.060;38.948;2024-01-10T07:28:31;21.95;;;13.07;;
64832;SDS011;51290;45.060;38.948;2024-01-10T07:30:58;20.75;;;12.82;;
64832;SDS011;51290;45.060;38.948;2024-01-10T07:33:24;20.45;;;12.88;;
64832;SDS011;51290;45.060;38.948;2024-01-10T07:35:50;17.33;;;11.82;;
64832;SDS011;51290;45.060;38.948;2024-01-10T07:38:18;21.00;;;13.13;;
64832;SDS011;51290;45.060;38.948;2024-01-10T07:40:44;21.50;;;13.02;;
64832;SDS011;51290;45.060;38.948;2024-01-10T07:43:10;20.10;;;12.65;;
64832;SDS011;51290;45.060;38.948;2024-01-10T07:45:36;16.85;;;11.20;;
64832;SDS011;51290;45.060;38.948;2024-01-10T07:48:02;19.23;;;12.90;;
64832;SDS011;51290;45.060;38.948;2024-01-10T07:50:28;26.02;;;14.93;;
64832;SDS011;51290;45.060;38.948;2024-01-10T07:52:54;19.92;;;13.38;;
64832;SDS011;51290;45.060;38.948;2024-01-10T07:55:20;19.75;;;12.85;;
64832;SDS011;51290;45.060;38.948;2024-01-10T07:57:46;21.38;;;13.95;;
64832;SDS011;51290;45.060;38.948;2024-01-10T08:00:12;30.13;;;15.90;;
64832;SDS011;51290;45.060;38.948;2024-01-10T08:02:39;25.38;;;15.68;;
64832;SDS011;51290;45.060;38.948;2024-01-10T08:05:05;26.48;;;15.85;;
64832;SDS011;51290;45.060;38.948;2024-01-10T08:07:35;25.60;;;14.93;;
64832;SDS011;51290;45.060;38.948;2024-01-10T08:10:05;31.90;;;17.33;;
64832;SDS011;51290;45.060;38.948;2024-01-10T08:12:39;27.15;;;16.17;;
64832;SDS011;51290;45.060;38.948;2024-01-10T08:15:06;25.63;;;16.40;;
64832;SDS011;51290;45.060;38.948;2024-01-10T08:17:33;24.25;;;14.65;;
64832;SDS011;51290;45.060;38.948;2024-01-10T08:19:59;23.10;;;15.15;;
64832;SDS011;51290;45.060;38.948;2024-01-10T08:22:26;24.73;;;15.55;;
64832;SDS011;51290;45.060;38.948;2024-01-10T08:24:52;23.45;;;15.73;;
64832;SDS011;51290;45.060;38.948;2024-01-10T08:27:18;26.63;;;16.02;;
64832;SDS011;51290;45.060;38.948;2024-01-10T08:29:44;24.77;;;15.15;;
64832;SDS011;51290;45.060;38.948;2024-01-10T08:32:10;24.90;;;16.00;;
64832;SDS011;51290;45.060;38.948;2024-01-10T08:34:36;23.92;;;15.48;;
64832;SDS011;51290;45.060;38.948;2024-01-10T08:37:02;24.67;;;17.17;;
64832;SDS011;51290;45.060;38.948;2024-01-10T08:39:29;28.15;;;17.67;;
64832;SDS011;51290;45.060;38.948;2024-01-10T08:41:58;30.70;;;16.95;;
64832;SDS011;51290;45.060;38.948;2024-01-10T08:44:24;24.63;;;15.70;;
64832;SDS011;51290;45.060;38.948;2024-01-10T08:46:50;33.72;;;17.05;;
64832;SDS011;51290;45.060;38.948;2024-01-10T08:49:19;25.70;;;15.70;;
64832;SDS011;51290;45.060;38.948;2024-01-10T08:51:45;22.98;;;14.45;;
64832;SDS011;51290;45.060;38.948;2024-01-10T08:54:12;23.42;;;15.73;;
64832;SDS011;51290;45.060;38.948;2024-01-10T08:56:45;29.63;;;16.52;;
64832;SDS011;51290;45.060;38.948;2024-01-10T08:59:11;27.05;;;16.52;;
64832;SDS011;51290;45.060;38.948;2024-01-10T09:01:38;25.40;;;16.02;;
64832;SDS011;51290;45.060;38.948;2024-01-10T09:04:07;24.27;;;15.35;;
64832;SDS011;51290;45.060;38.948;2024-01-10T09:06:33;24.55;;;15.27;;
64832;SDS011;51290;45.060;38.948;2024-01-10T09:09:01;26.85;;;15.18;;
64832;SDS011;51290;45.060;38.948;2024-01-10T09:11:28;30.25;;;15.02;;
64832;SDS011;51290;45.060;38.948;2024-01-10T09:13:54;32.95;;;15.27;;
64832;SDS011;51290;45.060;38.948;2024-01-10T09:16:20;19.25;;;12.32;;
64832;SDS011;51290;45.060;38.948;2024-01-10T09:18:46;20.25;;;12.75;;
64832;SDS011;51290;45.060;38.948;2024-01-10T09:21:14;16.92;;;10.98;;
64832;SDS011;51290;45.060;38.948;2024-01-10T09:23:41;17.98;;;12.32;;
64832;SDS011;51290;45.060;38.948;2024-01-10T09:26:07;24.02;;;12.98;;
64832;SDS011;51290;45.060;38.948;2024-01-10T09:28:34;20.77;;;10.55;;
64832;SDS011;51290;45.060;38.948;2024-01-10T09:31:00;17.33;;;10.70;;
64832;SDS011;51290;45.060;38.948;2024-01-10T09:33:25;13.45;;;8.38;;
64832;SDS011;51290;45.060;38.948;2024-01-10T09:35:51;16.23;;;9.68;;
64832;SDS011;51290;45.060;38.948;2024-01-10T09:38:17;12.75;;;8.38;;
64832;SDS011;51290;45.060;38.948;2024-01-10T09:40:43;14.25;;;7.88;;
64832;SDS011;51290;45.060;38.948;2024-01-10T09:43:10;15.23;;;8.93;;
64832;SDS011;51290;45.060;38.948;2024-01-10T09:45:36;14.43;;;8.38;;
64832;SDS011;51290;45.060;38.948;2024-01-10T09:48:11;14.18;;;9.05;;
64832;SDS011;51290;45.060;38.948;2024-01-10T09:50:39;9.68;;;6.60;;
64832;SDS011;51290;45.060;38.948;2024-01-10T09:53:05;16.05;;;8.20;;
64832;SDS011;51290;45.060;38.948;2024-01-10T09:55:34;11.45;;;6.38;;
64832;SDS011;51290;45.060;38.948;2024-01-10T09:58:03;19.40;;;8.38;;
64832;SDS011;51290;45.060;38.948;2024-01-10T10:00:31;14.73;;;6.95;;
64832;SDS011;51290;45.060;38.948;2024-01-10T10:03:00;18.98;;;8.18;;
64832;SDS011;51290;45.060;38.948;2024-01-10T10:05:29;11.60;;;6.80;;
64832;SDS011;51290;45.060;38.948;2024-01-10T10:07:57;13.10;;;7.28;;
64832;SDS011;51290;45.060;38.948;2024-01-10T10:10:24;13.60;;;7.60;;
64832;SDS011;51290;45.060;38.948;2024-01-10T10:12:53;9.82;;;6.38;;
64832;SDS011;51290;45.060;38.948;2024-01-10T10:15:23;26.77;;;9.95;;
64832;SDS011;51290;45.060;38.948;2024-01-10T10:17:51;18.30;;;8.52;;
64832;SDS011;51290;45.060;38.948;2024-01-10T10:20:26;19.95;;;7.75;;
64832;SDS011;51290;45.060;38.948;2024-01-10T10:27:57;13.38;;;6.53;;
64832;SDS011;51290;45.060;38.948;2024-01-10T10:30:25;11.75;;;7.85;;
64832;SDS011;51290;45.060;38.948;2024-01-10T10:32:52;12.57;;;7.35;;
64832;SDS011;51290;45.060;38.948;2024-01-10T10:35:21;16.48;;;7.60;;
64832;SDS011;51290;45.060;38.948;2024-01-10T10:37:51;10.35;;;6.68;;
64832;SDS011;51290;45.060;38.948;2024-01-10T10:40:18;12.52;;;7.60;;
64832;SDS011;51290;45.060;38.948;2024-01-10T10:42:48;15.23;;;7.57;;
64832;SDS011;51290;45.060;38.948;2024-01-10T10:45:18;13.07;;;8.48;;
64832;SDS011;51290;45.060;38.948;2024-01-10T10:47:45;11.65;;;6.35;;
64832;SDS011;51290;45.060;38.948;2024-01-10T10:50:21;11.55;;;7.13;;
64832;SDS011;51290;45.060;38.948;2024-01-10T10:52:48;9.82;;;6.63;;
64832;SDS011;51290;45.060;38.948;2024-01-10T10:55:16;11.35;;;7.97;;
64832;SDS011;51290;45.060;38.948;2024-01-10T10:57:45;13.23;;;8.30;;
64832;SDS011;51290;45.060;38.948;2024-01-10T11:00:16;14.07;;;8.80;;
64832;SDS011;51290;45.060;38.948;2024-01-10T11:02:45;11.30;;;7.93;;
64832;SDS011;51290;45.060;38.948;2024-01-10T11:05:11;10.43;;;7.75;;
64832;SDS011;51290;45.060;38.948;2024-01-10T11:07:38;11.75;;;7.68;;
64832;SDS011;51290;45.060;38.948;2024-01-10T11:10:11;13.80;;;7.93;;
64832;SDS011;51290;45.060;38.948;2024-01-10T11:12:44;14.63;;;8.10;;
64832;SDS011;51290;45.060;38.948;2024-01-10T11:24:03;12.57;;;7.90;;
64832;SDS011;51290;45.060;38.948;2024-01-10T11:26:31;11.02;;;7.20;;
64832;SDS011;51290;45.060;38.948;2024-01-10T11:28:58;18.83;;;8.32;;
64832;SDS011;51290;45.060;38.948;2024-01-10T11:31:29;16.33;;;8.90;;
64832;SDS011;51290;45.060;38.948;2024-01-10T11:33:57;15.80;;;8.07;;
64832;SDS011;51290;45.060;38.948;2024-01-10T11:36:23;14.32;;;8.10;;
64832;SDS011;51290;45.060;38.948;2024-01-10T11:41:22;16.45;;;9.43;;
64832;SDS011;51290;45.060;38.948;2024-01-10T11:46:41;12.75;;;8.20;;
64832;SDS011;51290;45.060;38.948;2024-01-10T11:49:18;12.10;;;7.47;;
64832;SDS011;51290;45.060;38.948;2024-01-10T11:51:55;11.68;;;7.20;;
64832;SDS011;51290;45.060;38.948;2024-01-10T11:54:38;12.23;;;7.97;;
64832;SDS011;51290;45.060;38.948;2024-01-10T11:57:11;11.73;;;7.50;;
64832;SDS011;51290;45.060;38.948;2024-01-10T11:59:42;18.52;;;8.35;;
64832;SDS011;51290;45.060;38.948;2024-01-10T12:02:11;12.90;;;8.43;;
64832;SDS011;51290;45.060;38.948;2024-01-10T12:04:38;12.38;;;8.25;;
64832;SDS011;51290;45.060;38.948;2024-01-10T12:07:05;14.27;;;9.18;;
64832;SDS011;51290;45.060;38.948;2024-01-10T12:09:33;15.05;;;9.07;;
64832;SDS011;51290;45.060;38.948;2024-01-10T12:12:00;11.60;;;7.75;;
64832;SDS011;51290;45.060;38.948;2024-01-10T12:14:27;12.20;;;8.07;;
64832;SDS011;51290;45.060;38.948;2024-01-10T12:16:54;12.18;;;8.07;;
64832;SDS011;51290;45.060;38.948;2024-01-10T12:19:20;11.25;;;7.88;;
64832;SDS011;51290;45.060;38.948;2024-01-10T12:21:50;12.73;;;9.13;;
64832;SDS011;51290;45.060;38.948;2024-01-10T12:24:17;11.80;;;8.00;;
64832;SDS011;51290;45.060;38.948;2024-01-10T12:26:44;13.77;;;9.23;;
64832;SDS011;51290;45.060;38.948;2024-01-10T12:29:16;13.25;;;9.13;;
64832;SDS011;51290;45.060;38.948;2024-01-10T12:31:43;15.65;;;7.80;;
64832;SDS011;51290;45.060;38.948;2024-01-10T12:34:11;11.65;;;7.85;;
64832;SDS011;51290;45.060;38.948;2024-01-10T12:36:37;14.25;;;8.77;;
64832;SDS011;51290;45.060;38.948;2024-01-10T12:39:03;14.32;;;9.90;;
64832;SDS011;51290;45.060;38.948;2024-01-10T12:41:32;12.23;;;8.02;;
64832;SDS011;51290;45.060;38.948;2024-01-10T12:43:59;15.52;;;8.85;;
64832;SDS011;51290;45.060;38.948;2024-01-10T12:46:29;10.07;;;7.30;;
64832;SDS011;51290;45.060;38.948;2024-01-10T12:49:05;12.07;;;8.45;;
64832;SDS011;51290;45.060;38.948;2024-01-10T12:51:32;19.63;;;9.73;;
64832;SDS011;51290;45.060;38.948;2024-01-10T12:54:01;12.95;;;8.50;;
64832;SDS011;51290;45.060;38.948;2024-01-10T12:56:29;10.60;;;7.25;;
64832;SDS011;51290;45.060;38.948;2024-01-10T12:58:56;13.38;;;9.02;;
64832;SDS011;51290;45.060;38.948;2024-01-10T13:01:25;12.70;;;8.48;;
64832;SDS011;51290;45.060;38.948;2024-01-10T13:03:51;11.93;;;8.20;;
64832;SDS011;51290;45.060;38.948;2024-01-10T13:06:17;11.98;;;7.75;;
64832;SDS011;51290;45.060;38.948;2024-01-10T13:08:45;15.38;;;7.82;;
64832;SDS011;51290;45.060;38.948;2024-01-10T13:11:11;11.77;;;7.57;;
64832;SDS011;51290;45.060;38.948;2024-01-10T13:13:39;13.20;;;8.32;;
64832;SDS011;51290;45.060;38.948;2024-01-10T13:16:06;12.50;;;7.53;;
64832;SDS011;51290;45.060;38.948;2024-01-10T13:18:32;15.40;;;8.57;;
64832;SDS011;51290;45.060;38.948;2024-01-10T13:20:59;10.55;;;7.90;;
64832;SDS011;51290;45.060;38.948;2024-01-10T13:23:25;10.48;;;7.38;;
64832;SDS011;51290;45.060;38.948;2024-01-10T13:25:51;11.43;;;8.05;;
64832;SDS011;51290;45.060;38.948;2024-01-10T13:28:20;11.98;;;7.82;;
64832;SDS011;51290;45.060;38.948;2024-01-10T13:30:46;11.73;;;7.05;;
64832;SDS011;51290;45.060;38.948;2024-01-10T13:33:12;11.25;;;7.85;;
64832;SDS011;51290;45.060;38.948;2024-01-10T13:35:38;10.55;;;7.28;;
64832;SDS011;51290;45.060;38.948;2024-01-10T13:38:05;13.13;;;8.10;;
64832;SDS011;51290;45.060;38.948;2024-01-10T13:40:31;11.57;;;7.45;;
64832;SDS011;51290;45.060;38.948;2024-01-10T13:42:59;15.07;;;8.45;;
64832;SDS011;51290;45.060;38.948;2024-01-10T13:45:28;12.32;;;8.65;;
64832;SDS011;51290;45.060;38.948;2024-01-10T13:47:54;11.52;;;8.18;;
64832;SDS011;51290;45.060;38.948;2024-01-10T13:50:20;14.45;;;9.65;;
64832;SDS011;51290;45.060;38.948;2024-01-10T13:52:47;15.57;;;8.45;;
64832;SDS011;51290;45.060;38.948;2024-01-10T13:55:13;13.80;;;9.93;;
64832;SDS011;51290;45.060;38.948;2024-01-10T13:57:39;21.17;;;11.27;;
64832;SDS011;51290;45.060;38.948;2024-01-10T14:00:05;13.75;;;9.27;;
64832;SDS011;51290;45.060;38.948;2024-01-10T14:02:40;13.67;;;10.10;;
64832;SDS011;51290;45.060;38.948;2024-01-10T14:05:09;14.95;;;9.65;;
64832;SDS011;51290;45.060;38.948;2024-01-10T14:07:35;13.18;;;8.95;;
64832;SDS011;51290;45.060;38.948;2024-01-10T14:10:01;17.70;;;11.88;;
64832;SDS011;51290;45.060;38.948;2024-01-10T14:12:28;17.00;;;10.18;;
64832;SDS011;51290;45.060;38.948;2024-01-10T14:14:55;15.00;;;9.38;;
64832;SDS011;51290;45.060;38.948;2024-01-10T14:17:21;13.10;;;9.82;;
64832;SDS011;51290;45.060;38.948;2024-01-10T14:19:48;12.48;;;8.85;;
64832;SDS011;51290;45.060;38.948;2024-01-10T14:22:16;22.08;;;9.82;;
64832;SDS011;51290;45.060;38.948;2024-01-10T14:24:43;14.52;;;10.20;;
64832;SDS011;51290;45.060;38.948;2024-01-10T14:27:09;13.55;;;8.88;;
64832;SDS011;51290;45.060;38.948;2024-01-10T14:29:35;18.63;;;9.77;;